Terminal Aerodrome Forecast
Issued by NWS

Home | Current Version | Previous Version | Text Only | Print | Product List | Glossary On
Versions: 1 2 3 4 5 6 7 8 9 10 11 12 13 14 15 16 17 18 19 20 21 22
000
FTPA31 PHFO 252000 AAA
TAFHTO
TAF AMD
PHTO 252000Z 2520/2618 24006KT 4SM -SHRA SCT015 BKN025
      TEMPO 2520/2521 2SM SHRA
     FM252100 13008KT 6SM -SHRA SCT015 BKN030
     FM260500 24006KT 5SM -SHRA SCT015 BKN025=

USA.gov is the U.S. government's official web portal to all federal, state and local government web resources and services.